Terminal Aerodrome Forecast
Issued by NWS

Home | Current Version | Previous Version | Text Only | Print | Product List | Glossary On
Versions: 1 2 3 4 5 6 7 8 9 10 11 12 13 14 15 16 17 18 19 20 21
370
FTUS43 KDTX 211733
TAFDET
TAF
KDET 211733Z 2118/2218 20005KT 1SM BR OVC004
     FM220200 13005KT 3/4SM -SHRA BR VV003
     FM220600 09007KT 1/2SM RA FG VV002
     FM221300 13007KT 1SM -SHRA BR OVC004
     FM221600 18010KT 3SM BR OVC008=

USA.gov is the U.S. government's official web portal to all federal, state and local government web resources and services.